sensor_id;sensor_type;location;lat;lon;timestamp;pressure;altitude;pressure_sealevel;temperature;humidity
24234;BME280;12365;43.554;1.388;2022-08-21T00:00:39;99940.28;;;27.54;42.37
24234;BME280;12365;43.554;1.388;2022-08-21T00:03:07;99945.72;;;27.49;42.49
24234;BME280;12365;43.554;1.388;2022-08-21T00:05:36;99936.78;;;27.50;42.66
24234;BME280;12365;43.554;1.388;2022-08-21T00:08:03;99945.78;;;27.46;42.97
24234;BME280;12365;43.554;1.388;2022-08-21T00:10:29;99932.38;;;27.46;43.00
24234;BME280;12365;43.554;1.388;2022-08-21T00:12:54;99939.53;;;27.45;42.99
24234;BME280;12365;43.554;1.388;2022-08-21T00:15:26;99938.66;;;27.45;43.11
24234;BME280;12365;43.554;1.388;2022-08-21T00:17:53;99942.28;;;27.41;43.01
24234;BME280;12365;43.554;1.388;2022-08-21T00:20:19;99943.22;;;27.40;43.09
24234;BME280;12365;43.554;1.388;2022-08-21T00:22:45;99936.13;;;27.37;43.23
24234;BME280;12365;43.554;1.388;2022-08-21T00:25:12;99933.53;;;27.33;43.43
24234;BME280;12365;43.554;1.388;2022-08-21T00:27:38;99936.25;;;27.30;43.42
24234;BME280;12365;43.554;1.388;2022-08-21T00:30:05;99934.53;;;27.26;43.76
24234;BME280;12365;43.554;1.388;2022-08-21T00:32:31;99940.84;;;27.21;43.93
24234;BME280;12365;43.554;1.388;2022-08-21T00:34:57;99935.53;;;27.20;43.97
24234;BME280;12365;43.554;1.388;2022-08-21T00:37:23;99940.91;;;27.18;43.93
24234;BME280;12365;43.554;1.388;2022-08-21T00:39:48;99944.47;;;27.17;43.83
24234;BME280;12365;43.554;1.388;2022-08-21T00:42:14;99940.00;;;27.16;43.90
24234;BME280;12365;43.554;1.388;2022-08-21T00:44:42;99941.00;;;27.12;44.33
24234;BME280;12365;43.554;1.388;2022-08-21T00:47:08;99934.78;;;27.10;44.37
24234;BME280;12365;43.554;1.388;2022-08-21T00:49:33;99939.22;;;27.11;44.26
24234;BME280;12365;43.554;1.388;2022-08-21T00:52:00;99940.06;;;27.13;44.24
24234;BME280;12365;43.554;1.388;2022-08-21T00:54:29;99941.94;;;27.10;44.56
24234;BME280;12365;43.554;1.388;2022-08-21T00:57:00;99932.16;;;27.07;44.21
24234;BME280;12365;43.554;1.388;2022-08-21T00:59:27;99936.72;;;26.99;44.59
24234;BME280;12365;43.554;1.388;2022-08-21T01:01:55;99941.22;;;26.98;44.72
24234;BME280;12365;43.554;1.388;2022-08-21T01:04:22;99937.72;;;26.95;44.66
24234;BME280;12365;43.554;1.388;2022-08-21T01:06:47;99932.44;;;26.90;44.99
24234;BME280;12365;43.554;1.388;2022-08-21T01:09:13;99930.75;;;26.83;45.09
24234;BME280;12365;43.554;1.388;2022-08-21T01:11:40;99931.69;;;26.80;45.08
24234;BME280;12365;43.554;1.388;2022-08-21T01:14:08;99933.47;;;26.82;45.08
24234;BME280;12365;43.554;1.388;2022-08-21T01:16:38;99930.88;;;26.75;44.99
24234;BME280;12365;43.554;1.388;2022-08-21T01:19:05;99928.31;;;26.69;45.42
24234;BME280;12365;43.554;1.388;2022-08-21T01:21:31;99926.50;;;26.71;45.48
24234;BME280;12365;43.554;1.388;2022-08-21T01:23:58;99920.31;;;26.66;45.61
24234;BME280;12365;43.554;1.388;2022-08-21T01:26:27;99922.16;;;26.64;45.48
24234;BME280;12365;43.554;1.388;2022-08-21T01:29:48;99930.19;;;26.61;45.54
24234;BME280;12365;43.554;1.388;2022-08-21T01:31:47;99921.41;;;26.54;45.58
24234;BME280;12365;43.554;1.388;2022-08-21T01:34:13;99921.53;;;26.44;45.88
24234;BME280;12365;43.554;1.388;2022-08-21T01:36:40;99924.22;;;26.42;45.98
24234;BME280;12365;43.554;1.388;2022-08-21T01:39:06;99916.25;;;26.37;46.26
24234;BME280;12365;43.554;1.388;2022-08-21T01:41:31;99926.94;;;26.37;46.19
24234;BME280;12365;43.554;1.388;2022-08-21T01:43:57;99926.09;;;26.35;46.37
24234;BME280;12365;43.554;1.388;2022-08-21T01:46:22;99922.59;;;26.32;46.18
24234;BME280;12365;43.554;1.388;2022-08-21T01:48:48;99932.41;;;26.31;46.21
24234;BME280;12365;43.554;1.388;2022-08-21T01:51:14;99932.41;;;26.31;46.11
24234;BME280;12365;43.554;1.388;2022-08-21T01:53:39;99925.25;;;26.30;46.02
24234;BME280;12365;43.554;1.388;2022-08-21T01:56:07;99936.88;;;26.31;46.41
24234;BME280;12365;43.554;1.388;2022-08-21T01:58:33;99937.81;;;26.28;46.45
24234;BME280;12365;43.554;1.388;2022-08-21T02:01:00;99943.22;;;26.22;46.44
24234;BME280;12365;43.554;1.388;2022-08-21T02:03:27;99935.28;;;26.16;46.46
24234;BME280;12365;43.554;1.388;2022-08-21T02:05:53;99929.03;;;26.17;46.38
24234;BME280;12365;43.554;1.388;2022-08-21T02:08:18;99931.75;;;26.14;46.75
24234;BME280;12365;43.554;1.388;2022-08-21T02:10:44;99936.22;;;26.10;46.91
24234;BME280;12365;43.554;1.388;2022-08-21T02:13:09;99930.91;;;26.09;46.67
24234;BME280;12365;43.554;1.388;2022-08-21T02:15:35;99926.44;;;26.09;46.88
24234;BME280;12365;43.554;1.388;2022-08-21T02:18:02;99929.19;;;26.05;46.76
24234;BME280;12365;43.554;1.388;2022-08-21T02:20:35;99926.53;;;26.03;47.05
24234;BME280;12365;43.554;1.388;2022-08-21T02:23:02;99916.84;;;25.94;47.14
24234;BME280;12365;43.554;1.388;2022-08-21T02:25:29;99923.97;;;25.92;46.76
24234;BME280;12365;43.554;1.388;2022-08-21T02:27:56;99929.31;;;25.96;47.15
24234;BME280;12365;43.554;1.388;2022-08-21T02:30:27;99932.88;;;25.94;47.35
24234;BME280;12365;43.554;1.388;2022-08-21T02:32:53;99928.44;;;25.92;47.06
24234;BME280;12365;43.554;1.388;2022-08-21T02:35:20;99932.03;;;25.91;47.23
24234;BME280;12365;43.554;1.388;2022-08-21T02:37:56;99929.38;;;25.89;47.02
24234;BME280;12365;43.554;1.388;2022-08-21T02:40:24;99929.38;;;25.89;46.98
24234;BME280;12365;43.554;1.388;2022-08-21T02:42:51;99925.81;;;25.87;47.46
24234;BME280;12365;43.554;1.388;2022-08-21T02:45:17;99923.22;;;25.83;47.45
24234;BME280;12365;43.554;1.388;2022-08-21T02:47:50;99911.69;;;25.76;47.50
24234;BME280;12365;43.554;1.388;2022-08-21T02:50:26;99918.84;;;25.74;47.31
24234;BME280;12365;43.554;1.388;2022-08-21T02:52:52;99918.88;;;25.71;47.77
24234;BME280;12365;43.554;1.388;2022-08-21T02:55:19;99923.34;;;25.70;47.44
24234;BME280;12365;43.554;1.388;2022-08-21T02:57:46;99926.00;;;25.70;47.90
24234;BME280;12365;43.554;1.388;2022-08-21T03:00:11;99922.44;;;25.70;47.85
24234;BME280;12365;43.554;1.388;2022-08-21T03:02:38;99927.78;;;25.70;48.00
24234;BME280;12365;43.554;1.388;2022-08-21T03:05:06;99918.91;;;25.68;47.91
24234;BME280;12365;43.554;1.388;2022-08-21T03:07:32;99924.25;;;25.68;47.72
24234;BME280;12365;43.554;1.388;2022-08-21T03:09:57;99920.72;;;25.66;47.92
24234;BME280;12365;43.554;1.388;2022-08-21T03:12:23;99923.41;;;25.64;47.93
24234;BME280;12365;43.554;1.388;2022-08-21T03:14:49;99916.28;;;25.63;48.29
24234;BME280;12365;43.554;1.388;2022-08-21T03:17:14;99918.97;;;25.62;48.23
24234;BME280;12365;43.554;1.388;2022-08-21T03:19:40;99923.44;;;25.61;48.07
24234;BME280;12365;43.554;1.388;2022-08-21T03:22:05;99918.13;;;25.57;48.04
24234;BME280;12365;43.554;1.388;2022-08-21T03:24:31;99917.31;;;25.53;48.39
24234;BME280;12365;43.554;1.388;2022-08-21T03:26:56;99909.28;;;25.51;48.50
24234;BME280;12365;43.554;1.388;2022-08-21T03:29:22;99920.03;;;25.47;48.40
24234;BME280;12365;43.554;1.388;2022-08-21T03:31:47;99917.44;;;25.42;48.42
24234;BME280;12365;43.554;1.388;2022-08-21T03:34:13;99909.41;;;25.39;48.55
24234;BME280;12365;43.554;1.388;2022-08-21T03:36:39;99913.00;;;25.38;48.72
24234;BME280;12365;43.554;1.388;2022-08-21T03:39:04;99910.34;;;25.37;48.65
24234;BME280;12365;43.554;1.388;2022-08-21T03:41:30;99916.63;;;25.33;48.88
24234;BME280;12365;43.554;1.388;2022-08-21T03:43:55;99919.31;;;25.31;49.13
24234;BME280;12365;43.554;1.388;2022-08-21T03:46:21;99919.34;;;25.28;49.36
24234;BME280;12365;43.554;1.388;2022-08-21T03:48:46;99916.66;;;25.29;49.04
24234;BME280;12365;43.554;1.388;2022-08-21T03:51:12;99922.00;;;25.29;49.19
24234;BME280;12365;43.554;1.388;2022-08-21T03:53:37;99916.66;;;25.28;49.13
24234;BME280;12365;43.554;1.388;2022-08-21T03:56:04;99916.72;;;25.25;49.23
24234;BME280;12365;43.554;1.388;2022-08-21T03:58:29;99914.03;;;25.23;49.44
24234;BME280;12365;43.554;1.388;2022-08-21T04:00:57;99911.38;;;25.22;49.78
24234;BME280;12365;43.554;1.388;2022-08-21T04:03:25;99915.88;;;25.20;49.51
24234;BME280;12365;43.554;1.388;2022-08-21T04:05:50;99913.19;;;25.14;49.57
24234;BME280;12365;43.554;1.388;2022-08-21T04:08:17;99915.94;;;25.07;49.97
24234;BME280;12365;43.554;1.388;2022-08-21T04:10:45;99910.56;;;25.11;50.06
24234;BME280;12365;43.554;1.388;2022-08-21T04:13:11;99920.34;;;25.13;49.60
24234;BME280;12365;43.554;1.388;2022-08-21T04:15:37;99920.34;;;25.18;49.82
24234;BME280;12365;43.554;1.388;2022-08-21T04:18:03;99915.00;;;25.16;49.96
24234;BME280;12365;43.554;1.388;2022-08-21T04:20:29;99919.41;;;25.16;49.85
24234;BME280;12365;43.554;1.388;2022-08-21T04:22:54;99923.00;;;25.15;49.70
24234;BME280;12365;43.554;1.388;2022-08-21T04:25:22;99926.56;;;25.15;49.64
24234;BME280;12365;43.554;1.388;2022-08-21T04:27:48;99931.94;;;25.11;49.80
24234;BME280;12365;43.554;1.388;2022-08-21T04:30:15;99938.19;;;25.08;49.99
24234;BME280;12365;43.554;1.388;2022-08-21T04:32:45;99939.97;;;25.06;49.88
24234;BME280;12365;43.554;1.388;2022-08-21T04:35:13;99940.88;;;25.03;50.12
24234;BME280;12365;43.554;1.388;2022-08-21T04:37:39;99940.00;;;25.01;50.16
24234;BME280;12365;43.554;1.388;2022-08-21T04:40:05;99932.03;;;24.98;50.12
24234;BME280;12365;43.554;1.388;2022-08-21T04:42:32;99945.38;;;24.98;50.25
24234;BME280;12365;43.554;1.388;2022-08-21T04:44:57;99940.06;;;24.95;50.43
24234;BME280;12365;43.554;1.388;2022-08-21T04:47:23;99940.97;;;24.94;50.32
24234;BME280;12365;43.554;1.388;2022-08-21T04:49:49;99949.00;;;24.93;50.24
24234;BME280;12365;43.554;1.388;2022-08-21T04:52:17;99950.75;;;24.94;50.23
24234;BME280;12365;43.554;1.388;2022-08-21T04:54:45;99960.56;;;24.93;50.50
24234;BME280;12365;43.554;1.388;2022-08-21T04:57:11;99962.34;;;24.93;50.27
24234;BME280;12365;43.554;1.388;2022-08-21T04:59:43;99965.88;;;24.93;50.31
24234;BME280;12365;43.554;1.388;2022-08-21T05:02:10;99962.34;;;24.94;50.61
24234;BME280;12365;43.554;1.388;2022-08-21T05:04:39;99972.16;;;24.92;50.60
24234;BME280;12365;43.554;1.388;2022-08-21T05:07:11;99971.25;;;24.90;50.47
24234;BME280;12365;43.554;1.388;2022-08-21T05:09:38;99966.84;;;24.86;50.48
24234;BME280;12365;43.554;1.388;2022-08-21T05:12:04;99961.53;;;24.83;50.95
24234;BME280;12365;43.554;1.388;2022-08-21T05:14:30;99965.97;;;24.81;50.92
24234;BME280;12365;43.554;1.388;2022-08-21T05:16:55;99966.00;;;24.78;50.96
24234;BME280;12365;43.554;1.388;2022-08-21T05:19:21;99966.91;;;24.77;50.69
24234;BME280;12365;43.554;1.388;2022-08-21T05:21:47;99965.13;;;24.76;51.02
24234;BME280;12365;43.554;1.388;2022-08-21T05:24:13;99964.25;;;24.75;50.94
24234;BME280;12365;43.554;1.388;2022-08-21T05:26:38;99962.47;;;24.76;51.07
24234;BME280;12365;43.554;1.388;2022-08-21T05:29:04;99967.78;;;24.77;50.79
24234;BME280;12365;43.554;1.388;2022-08-21T05:31:29;99969.56;;;24.80;50.87
24234;BME280;12365;43.554;1.388;2022-08-21T05:33:55;99978.44;;;24.82;51.00
24234;BME280;12365;43.554;1.388;2022-08-21T05:36:20;99981.09;;;24.85;51.22
24234;BME280;12365;43.554;1.388;2022-08-21T05:38:46;99981.09;;;24.85;50.91
24234;BME280;12365;43.554;1.388;2022-08-21T05:41:11;99984.63;;;24.85;51.25
24234;BME280;12365;43.554;1.388;2022-08-21T05:43:37;99976.63;;;24.87;50.88
24234;BME280;12365;43.554;1.388;2022-08-21T05:46:03;99982.81;;;24.91;51.28
24234;BME280;12365;43.554;1.388;2022-08-21T05:48:30;99980.13;;;24.95;50.84
24234;BME280;12365;43.554;1.388;2022-08-21T05:50:56;99982.72;;;25.01;51.20
24234;BME280;12365;43.554;1.388;2022-08-21T05:53:23;99987.16;;;25.05;50.91
24234;BME280;12365;43.554;1.388;2022-08-21T05:55:49;99986.22;;;25.11;50.86
24234;BME280;12365;43.554;1.388;2022-08-21T05:58:17;99988.88;;;25.19;51.12
24234;BME280;12365;43.554;1.388;2022-08-21T06:00:44;99987.03;;;25.27;50.72
24234;BME280;12365;43.554;1.388;2022-08-21T06:03:39;99990.47;;;25.38;51.06
24234;BME280;12365;43.554;1.388;2022-08-21T06:06:05;99985.09;;;25.41;50.49
24234;BME280;12365;43.554;1.388;2022-08-21T06:08:31;99990.34;;;25.52;50.84
24234;BME280;12365;43.554;1.388;2022-08-21T06:10:58;99992.06;;;25.61;50.70
24234;BME280;12365;43.554;1.388;2022-08-21T06:13:25;99989.25;;;25.70;50.22
24234;BME280;12365;43.554;1.388;2022-08-21T06:16:02;99991.91;;;25.74;50.38
24234;BME280;12365;43.554;1.388;2022-08-21T06:18:28;99984.69;;;25.81;50.03
24234;BME280;12365;43.554;1.388;2022-08-21T06:20:53;99981.13;;;25.82;50.23
24234;BME280;12365;43.554;1.388;2022-08-21T06:23:19;99990.91;;;25.86;50.26
24234;BME280;12365;43.554;1.388;2022-08-21T06:25:44;99995.25;;;25.97;49.93
24234;BME280;12365;43.554;1.388;2022-08-21T06:28:10;99989.78;;;26.09;50.09
24234;BME280;12365;43.554;1.388;2022-08-21T06:30:37;99985.25;;;26.12;49.77
24234;BME280;12365;43.554;1.388;2022-08-21T06:33:04;99989.63;;;26.18;49.47
24234;BME280;12365;43.554;1.388;2022-08-21T06:35:29;99998.47;;;26.26;49.38
24234;BME280;12365;43.554;1.388;2022-08-21T06:37:56;100001.00;;;26.35;49.57
24234;BME280;12365;43.554;1.388;2022-08-21T06:40:22;100000.91;;;26.43;48.89
24234;BME280;12365;43.554;1.388;2022-08-21T06:42:48;100003.53;;;26.48;48.86
24234;BME280;12365;43.554;1.388;2022-08-21T06:45:13;99998.16;;;26.54;48.71
24234;BME280;12365;43.554;1.388;2022-08-21T06:47:39;99992.75;;;26.57;48.63
24234;BME280;12365;43.554;1.388;2022-08-21T06:50:05;99997.94;;;26.69;48.55
24234;BME280;12365;43.554;1.388;2022-08-21T06:52:34;99992.44;;;26.77;48.43
24234;BME280;12365;43.554;1.388;2022-08-21T06:54:59;99995.06;;;26.82;48.41
24234;BME280;12365;43.554;1.388;2022-08-21T06:57:24;99993.28;;;26.80;48.27
24234;BME280;12365;43.554;1.388;2022-08-21T06:59:50;99993.22;;;26.85;47.81
24234;BME280;12365;43.554;1.388;2022-08-21T07:02:16;99997.41;;;27.03;47.97
24234;BME280;12365;43.554;1.388;2022-08-21T07:04:41;99995.38;;;27.20;47.33
24234;BME280;12365;43.554;1.388;2022-08-21T07:07:07;99998.66;;;27.36;47.41
24234;BME280;12365;43.554;1.388;2022-08-21T07:09:32;100006.47;;;27.50;46.98
24234;BME280;12365;43.554;1.388;2022-08-21T07:11:58;99997.53;;;27.50;46.89
24234;BME280;12365;43.554;1.388;2022-08-21T07:14:24;99998.31;;;27.56;46.70
24234;BME280;12365;43.554;1.388;2022-08-21T07:16:50;100001.72;;;27.64;46.63
24234;BME280;12365;43.554;1.388;2022-08-21T07:19:16;99996.19;;;27.74;46.48
24234;BME280;12365;43.554;1.388;2022-08-21T07:21:42;99998.63;;;27.89;46.24
24234;BME280;12365;43.554;1.388;2022-08-21T07:24:08;100004.53;;;28.06;46.09
24234;BME280;12365;43.554;1.388;2022-08-21T07:26:34;100003.53;;;28.12;45.90
24234;BME280;12365;43.554;1.388;2022-08-21T07:28:59;100023.44;;;28.00;45.95
24234;BME280;12365;43.554;1.388;2022-08-21T07:31:25;100017.25;;;27.97;45.97
24234;BME280;12365;43.554;1.388;2022-08-21T07:33:51;100010.94;;;27.99;45.98
24234;BME280;12365;43.554;1.388;2022-08-21T07:36:16;100011.56;;;28.12;45.83
24234;BME280;12365;43.554;1.388;2022-08-21T07:38:42;100010.56;;;28.18;45.63
24234;BME280;12365;43.554;1.388;2022-08-21T07:41:17;100013.22;;;28.21;45.52
24234;BME280;12365;43.554;1.388;2022-08-21T07:43:44;100016.59;;;28.29;45.40
24234;BME280;12365;43.554;1.388;2022-08-21T07:46:09;100016.69;;;28.26;45.16
24234;BME280;12365;43.554;1.388;2022-08-21T07:48:35;100019.25;;;28.30;45.16
24234;BME280;12365;43.554;1.388;2022-08-21T07:51:05;100014.50;;;28.45;44.88
24234;BME280;12365;43.554;1.388;2022-08-21T07:53:31;100014.34;;;28.51;44.85
24234;BME280;12365;43.554;1.388;2022-08-21T07:55:58;100015.97;;;28.60;44.60
24234;BME280;12365;43.554;1.388;2022-08-21T07:58:23;100027.31;;;28.74;44.46
24234;BME280;12365;43.554;1.388;2022-08-21T08:00:49;100027.94;;;28.85;44.36
24234;BME280;12365;43.554;1.388;2022-08-21T08:03:14;100024.09;;;28.95;44.10
24234;BME280;12365;43.554;1.388;2022-08-21T08:05:40;100029.22;;;29.08;44.00
24234;BME280;12365;43.554;1.388;2022-08-21T08:08:05;100028.94;;;29.20;43.71
24234;BME280;12365;43.554;1.388;2022-08-21T08:10:31;100033.88;;;29.37;43.58
24234;BME280;12365;43.554;1.388;2022-08-21T08:12:56;100033.09;;;29.32;43.20
24234;BME280;12365;43.554;1.388;2022-08-21T08:15:25;100037.84;;;29.22;43.42
24234;BME280;12365;43.554;1.388;2022-08-21T08:17:51;100035.53;;;29.04;43.43
24234;BME280;12365;43.554;1.388;2022-08-21T08:20:17;100033.16;;;28.91;43.45
24234;BME280;12365;43.554;1.388;2022-08-21T08:22:44;100031.38;;;28.90;43.67
24234;BME280;12365;43.554;1.388;2022-08-21T08:25:13;100034.59;;;29.08;43.05
24234;BME280;12365;43.554;1.388;2022-08-21T08:27:39;100038.75;;;29.21;42.79
24234;BME280;12365;43.554;1.388;2022-08-21T08:30:07;100037.59;;;29.31;42.67
24234;BME280;12365;43.554;1.388;2022-08-21T08:32:33;100037.22;;;29.47;42.70
24234;BME280;12365;43.554;1.388;2022-08-21T08:34:58;100021.47;;;29.67;42.17
24234;BME280;12365;43.554;1.388;2022-08-21T08:37:24;100029.88;;;29.88;42.34
24234;BME280;12365;43.554;1.388;2022-08-21T08:39:49;100016.03;;;30.03;41.69
24234;BME280;12365;43.554;1.388;2022-08-21T08:42:19;100012.03;;;30.16;41.78
24234;BME280;12365;43.554;1.388;2022-08-21T08:44:46;100015.16;;;30.34;41.41
24234;BME280;12365;43.554;1.388;2022-08-21T08:47:15;100013.72;;;30.52;41.34
24234;BME280;12365;43.554;1.388;2022-08-21T08:52:27;100008.50;;;30.45;40.80
24234;BME280;12365;43.554;1.388;2022-08-21T08:55:36;100000.28;;;30.50;40.67
24234;BME280;12365;43.554;1.388;2022-08-21T08:57:54;99994.03;;;30.50;40.87
24234;BME280;12365;43.554;1.388;2022-08-21T09:00:22;100001.00;;;30.57;40.95
24234;BME280;12365;43.554;1.388;2022-08-21T09:02:55;99998.94;;;30.65;40.75
24234;BME280;12365;43.554;1.388;2022-08-21T09:05:28;99996.00;;;30.73;39.96
24234;BME280;12365;43.554;1.388;2022-08-21T09:13:40;99986.34;;;30.95;39.68
24234;BME280;12365;43.554;1.388;2022-08-21T09:27:10;99985.63;;;31.17;38.71
24234;BME280;12365;43.554;1.388;2022-08-21T09:29:40;99992.66;;;31.49;38.65
24234;BME280;12365;43.554;1.388;2022-08-21T09:32:18;99988.81;;;31.81;38.09
24234;BME280;12365;43.554;1.388;2022-08-21T09:37:30;99993.88;;;32.15;37.65
24234;BME280;12365;43.554;1.388;2022-08-21T09:39:57;99984.56;;;32.24;37.46
24234;BME280;12365;43.554;1.388;2022-08-21T09:42:31;99981.59;;;32.30;37.31
24234;BME280;12365;43.554;1.388;2022-08-21T09:45:16;99995.22;;;32.04;37.05
24234;BME280;12365;43.554;1.388;2022-08-21T09:47:43;99998.09;;;31.99;37.17
24234;BME280;12365;43.554;1.388;2022-08-21T09:50:18;99992.09;;;31.89;36.86
24234;BME280;12365;43.554;1.388;2022-08-21T09:52:49;99991.94;;;31.95;36.83
24234;BME280;12365;43.554;1.388;2022-08-21T09:55:20;99993.34;;;32.06;36.63
24234;BME280;12365;43.554;1.388;2022-08-21T09:58:05;99993.09;;;32.12;36.39
24234;BME280;12365;43.554;1.388;2022-08-21T10:00:34;99991.69;;;32.25;36.09
24234;BME280;12365;43.554;1.388;2022-08-21T10:03:17;99992.06;;;32.39;35.73
24234;BME280;12365;43.554;1.388;2022-08-21T10:05:58;99991.19;;;32.39;35.66
24234;BME280;12365;43.554;1.388;2022-08-21T10:08:26;99986.34;;;32.47;35.09
24234;BME280;12365;43.554;1.388;2022-08-21T10:10:56;99980.44;;;32.61;35.23
24234;BME280;12365;43.554;1.388;2022-08-21T10:18:42;99978.13;;;32.96;34.61
24234;BME280;12365;43.554;1.388;2022-08-21T10:29:47;99973.41;;;33.01;33.94
24234;BME280;12365;43.554;1.388;2022-08-21T10:38:03;99960.59;;;32.62;34.03
24234;BME280;12365;43.554;1.388;2022-08-21T10:40:56;99961.53;;;32.83;33.65
24234;BME280;12365;43.554;1.388;2022-08-21T10:46:20;99960.56;;;33.08;33.29
24234;BME280;12365;43.554;1.388;2022-08-21T10:48:55;99962.75;;;33.20;33.01
24234;BME280;12365;43.554;1.388;2022-08-21T10:57:52;99939.66;;;33.32;32.96
24234;BME280;12365;43.554;1.388;2022-08-21T11:00:22;99946.78;;;33.34;32.89
24234;BME280;12365;43.554;1.388;2022-08-21T11:05:35;99941.94;;;33.42;32.77
24234;BME280;12365;43.554;1.388;2022-08-21T11:08:14;99943.56;;;33.24;32.64
24234;BME280;12365;43.554;1.388;2022-08-21T11:10:46;99941.28;;;33.15;32.69
24234;BME280;12365;43.554;1.388;2022-08-21T11:13:45;99943.88;;;33.39;32.32
24234;BME280;12365;43.554;1.388;2022-08-21T11:19:04;99937.16;;;33.27;32.36
24234;BME280;12365;43.554;1.388;2022-08-21T11:24:29;99923.56;;;33.29;32.58
24234;BME280;12365;43.554;1.388;2022-08-21T11:27:36;99933.19;;;33.15;32.48
24234;BME280;12365;43.554;1.388;2022-08-21T11:30:02;99932.28;;;32.93;32.55
24234;BME280;12365;43.554;1.388;2022-08-21T11:35:13;99917.75;;;32.95;32.68
24234;BME280;12365;43.554;1.388;2022-08-21T11:40:57;99906.72;;;33.22;32.27
24234;BME280;12365;43.554;1.388;2022-08-21T11:43:39;99908.69;;;33.39;31.84
24234;BME280;12365;43.554;1.388;2022-08-21T11:54:58;99903.00;;;34.05;31.35
24234;BME280;12365;43.554;1.388;2022-08-21T12:00:22;99895.19;;;33.59;31.44
24234;BME280;12365;43.554;1.388;2022-08-21T12:02:54;99889.56;;;33.43;31.63
24234;BME280;12365;43.554;1.388;2022-08-21T12:05:33;99888.69;;;33.43;31.63
24234;BME280;12365;43.554;1.388;2022-08-21T12:08:26;99893.81;;;33.49;31.63
24234;BME280;12365;43.554;1.388;2022-08-21T12:11:10;99893.56;;;33.55;31.48
24234;BME280;12365;43.554;1.388;2022-08-21T12:14:12;99887.47;;;33.50;31.65
24234;BME280;12365;43.554;1.388;2022-08-21T12:16:40;99891.63;;;33.37;31.62
24234;BME280;12365;43.554;1.388;2022-08-21T12:19:32;99883.06;;;33.48;31.73
24234;BME280;12365;43.554;1.388;2022-08-21T12:22:10;99879.09;;;33.56;31.52
24234;BME280;12365;43.554;1.388;2022-08-21T12:24:45;99888.94;;;33.57;31.47
24234;BME280;12365;43.554;1.388;2022-08-21T12:30:44;99879.44;;;33.47;31.14
24234;BME280;12365;43.554;1.388;2022-08-21T12:35:49;99874.19;;;33.44;31.44
24234;BME280;12365;43.554;1.388;2022-08-21T12:38:47;99873.38;;;33.62;31.14
24234;BME280;12365;43.554;1.388;2022-08-21T12:41:28;99878.69;;;33.65;30.87
24234;BME280;12365;43.554;1.388;2022-08-21T12:44:08;99870.25;;;33.51;31.15
24234;BME280;12365;43.554;1.388;2022-08-21T12:47:00;99879.75;;;33.41;30.97
24234;BME280;12365;43.554;1.388;2022-08-21T12:49:35;99874.88;;;33.29;31.19
24234;BME280;12365;43.554;1.388;2022-08-21T12:54:32;99872.50;;;33.21;31.08
24234;BME280;12365;43.554;1.388;2022-08-21T12:57:04;99855.41;;;33.20;31.34
24234;BME280;12365;43.554;1.388;2022-08-21T12:59:31;99857.63;;;33.11;31.23
24234;BME280;12365;43.554;1.388;2022-08-21T13:02:00;99855.94;;;33.08;31.27
24234;BME280;12365;43.554;1.388;2022-08-21T13:04:38;99860.34;;;33.11;31.19
24234;BME280;12365;43.554;1.388;2022-08-21T13:07:11;99857.63;;;33.11;31.28
24234;BME280;12365;43.554;1.388;2022-08-21T13:09:53;99864.00;;;33.10;31.19
24234;BME280;12365;43.554;1.388;2022-08-21T13:12:20;99865.47;;;33.17;31.29
24234;BME280;12365;43.554;1.388;2022-08-21T13:14:48;99870.41;;;33.07;31.34
24234;BME280;12365;43.554;1.388;2022-08-21T13:17:18;99862.59;;;32.99;31.38
24234;BME280;12365;43.554;1.388;2022-08-21T13:19:53;99870.53;;;33.04;31.61
24234;BME280;12365;43.554;1.388;2022-08-21T13:22:19;99863.66;;;33.17;31.18
24234;BME280;12365;43.554;1.388;2022-08-21T13:24:47;99865.13;;;33.24;31.22
24234;BME280;12365;43.554;1.388;2022-08-21T13:27:25;99860.66;;;33.44;31.28
24234;BME280;12365;43.554;1.388;2022-08-21T13:32:43;99856.88;;;33.69;30.85
24234;BME280;12365;43.554;1.388;2022-08-21T13:35:19;99856.88;;;33.69;30.80
24234;BME280;12365;43.554;1.388;2022-08-21T13:37:46;99856.09;;;33.65;31.09
24234;BME280;12365;43.554;1.388;2022-08-21T13:40:19;99857.06;;;33.64;30.70
24234;BME280;12365;43.554;1.388;2022-08-21T13:42:47;99860.81;;;33.61;30.97
24234;BME280;12365;43.554;1.388;2022-08-21T13:45:27;99856.72;;;33.51;30.99
24234;BME280;12365;43.554;1.388;2022-08-21T13:47:56;99854.84;;;33.53;30.61
24234;BME280;12365;43.554;1.388;2022-08-21T13:50:23;99854.84;;;33.53;30.93
24234;BME280;12365;43.554;1.388;2022-08-21T13:53:02;99861.25;;;33.51;31.12
24234;BME280;12365;43.554;1.388;2022-08-21T13:55:41;99855.25;;;33.44;31.13
24234;BME280;12365;43.554;1.388;2022-08-21T13:58:07;99855.34;;;33.42;31.31
24234;BME280;12365;43.554;1.388;2022-08-21T14:00:43;99853.16;;;33.51;31.19
24234;BME280;12365;43.554;1.388;2022-08-21T14:03:10;99852.38;;;33.47;31.08
24234;BME280;12365;43.554;1.388;2022-08-21T14:05:38;99843.34;;;33.48;31.20
24234;BME280;12365;43.554;1.388;2022-08-21T14:08:13;99842.19;;;33.54;31.13
24234;BME280;12365;43.554;1.388;2022-08-21T14:10:49;99842.94;;;33.57;30.95
24234;BME280;12365;43.554;1.388;2022-08-21T14:13:49;99837.53;;;33.57;31.19
24234;BME280;12365;43.554;1.388;2022-08-21T14:16:28;99832.22;;;33.54;31.02
24234;BME280;12365;43.554;1.388;2022-08-21T14:21:38;99824.53;;;33.65;30.97
24234;BME280;12365;43.554;1.388;2022-08-21T14:24:11;99825.25;;;33.69;31.16
24234;BME280;12365;43.554;1.388;2022-08-21T14:26:44;99825.09;;;33.72;31.04
24234;BME280;12365;43.554;1.388;2022-08-21T14:29:13;99818.00;;;33.70;30.95
24234;BME280;12365;43.554;1.388;2022-08-21T14:31:40;99820.84;;;33.66;31.00
24234;BME280;12365;43.554;1.388;2022-08-21T14:34:05;99825.41;;;33.66;30.70
24234;BME280;12365;43.554;1.388;2022-08-21T14:36:30;99824.94;;;33.56;30.79
24234;BME280;12365;43.554;1.388;2022-08-21T14:38:56;99820.81;;;33.48;30.94
24234;BME280;12365;43.554;1.388;2022-08-21T14:41:24;99820.06;;;33.44;31.18